العين, United Arab Emirates

12:57 AM GST on êواêر 24, 2017 (GMT +0400)
Al Ain International | | Change Station

Elev 860 ft 24.25 °N, 55.60 °E | Updated 57 minutes ago

Partly Cloudy
غائم جزئياً
68 °F
Feels Like 68 °F
N
6
ريح متغير ريح from شمال

هذا اليوم
High -- | Low -- °F
--% Chance of Precip.
Yesterday
High -- | Low -- °F
Precip. -- في
الضغط 30.04 في
وضوح الرؤية 3.7 أميال
سحابات Few 900 ft
نقطة الندى 64 °F
الرطوبة 88%
Rainfall 0.00 في
عمق الثلج Not available.
7:01 AM 5:57 PM
الهلال الأخير, 16% visible
METAR OMAL 232000Z 36005KT 6000 FEW009 20/18 Q1017 TEMPO 4000 HZ
الضغط 30.04 في
وضوح الرؤية 3.7 أميال
سحابات Few 900 ft
نقطة الندى 64 °F
الرطوبة 88%
Rainfall 0.00 في
عمق الثلج Not available.
7:01 AM 5:57 PM
الهلال الأخير, 16% visible
METAR OMAL 232000Z 36005KT 6000 FEW009 20/18 Q1017 TEMPO 4000 HZ

Get Your Daily Forecast Email!

Thanks for signing up!

Be on the lookout for a verification email in your inbox.

You'll start receiving the daily forecast at 8 AM.

×

10-Day Weather Forecast

No radar image for this location.
×

Almanac

علم الفلك

Jan. 24, 2017 Rise Set
Actual Time
Civil Twilight
Nautical Twilight
Astronomical Twilight
قمر
Length Of Visible Light
طول الیوم
Tomorrow will be .
, % of the Moon is Illuminated

Today's Extremes

Country Highs Country Lows

Community

WunderPhotos

Upload Photos

1,962,540 photos uploaded!

WunderBlog® & News

Nearby

جودة الهواء

  جودة الهواء AQ Index Pollutant
Not available.

عمق الثلج

Station Depth Elevation

Earthquake Activity

City Distance Mag. Time & Date
Minimum magnitude displayed is 2.5.

Coastal Water Temperatures

مكان درجات الحرارة

Stations

Nearby Weather Stations

Station Location الحرارة رياح باردة نقطة الندى الرطوبة ريح Precip. Elev تحديث Type